createdAt,value
2022-10-17T00:01:13.010Z,16.83
2022-10-17T00:03:42.063Z,16.35
2022-10-17T00:06:14.606Z,17.85
2022-10-17T00:08:45.837Z,17.52
2022-10-17T00:11:19.434Z,17.15
2022-10-17T00:13:50.172Z,18.80
2022-10-17T00:16:25.691Z,17.95
2022-10-17T00:18:54.315Z,17.70
2022-10-17T00:21:23.969Z,18.95
2022-10-17T00:23:54.815Z,17.95
2022-10-17T00:26:23.418Z,17.60
2022-10-17T00:28:53.919Z,16.80
2022-10-17T00:31:24.900Z,18.27
2022-10-17T00:33:54.114Z,17.50
2022-10-17T00:36:25.578Z,19.15
2022-10-17T00:38:58.808Z,16.48
2022-10-17T00:41:31.161Z,18.63
2022-10-17T00:44:02.856Z,16.73
2022-10-17T00:46:33.404Z,18.05
2022-10-17T00:49:07.777Z,18.02
2022-10-17T00:51:44.175Z,17.58
2022-10-17T00:54:17.201Z,19.10
2022-10-17T00:56:48.038Z,18.35
2022-10-17T00:59:20.325Z,16.30
2022-10-17T01:01:57.963Z,19.90
2022-10-17T01:04:26.045Z,17.25
2022-10-17T01:06:54.222Z,18.70
2022-10-17T01:09:24.203Z,17.83
2022-10-17T01:12:02.526Z,20.17
2022-10-17T01:14:44.344Z,17.23
2022-10-17T01:17:23.327Z,18.85
2022-10-17T01:20:23.198Z,18.77
2022-10-17T01:23:06.040Z,17.42
2022-10-17T01:25:55.688Z,16.30
2022-10-17T01:28:57.394Z,16.17
2022-10-17T01:31:33.985Z,14.93
2022-10-17T01:34:13.315Z,18.15
2022-10-17T01:36:53.039Z,18.80
2022-10-17T01:39:38.488Z,16.52
2022-10-17T01:42:19.166Z,16.15
2022-10-17T01:44:56.761Z,19.27
2022-10-17T01:47:31.329Z,17.75
2022-10-17T01:50:05.804Z,17.63
2022-10-17T01:52:42.548Z,18.42
2022-10-17T01:55:17.776Z,17.40
2022-10-17T01:57:52.995Z,16.05
2022-10-17T02:00:26.150Z,15.43
2022-10-17T02:03:01.499Z,18.65
2022-10-17T02:05:36.707Z,17.48
2022-10-17T02:08:05.417Z,17.42
2022-10-17T02:10:48.267Z,18.15
2022-10-17T02:13:33.892Z,18.55
2022-10-17T02:16:19.758Z,17.75
2022-10-17T02:19:22.446Z,16.67
2022-10-17T02:22:07.231Z,15.07
2022-10-17T02:24:49.160Z,15.30
2022-10-17T02:27:29.823Z,16.13
2022-10-17T02:30:07.717Z,15.98
2022-10-17T02:32:46.619Z,15.38
2022-10-17T02:35:21.504Z,17.67
2022-10-17T02:37:52.485Z,17.58
2022-10-17T02:40:25.382Z,17.27
2022-10-17T02:42:56.749Z,17.58
2022-10-17T02:45:29.223Z,17.67
2022-10-17T02:48:05.430Z,17.48
2022-10-17T02:50:53.760Z,18.17
2022-10-17T02:53:32.528Z,16.42
2022-10-17T02:56:09.969Z,16.58
2022-10-17T02:58:40.613Z,15.88
2022-10-17T03:01:08.992Z,14.73
2022-10-17T03:03:37.151Z,18.52
2022-10-17T03:06:06.878Z,18.13
2022-10-17T03:08:35.124Z,16.10
2022-10-17T03:11:03.661Z,16.02
2022-10-17T03:13:35.026Z,16.63
2022-10-17T03:16:06.320Z,16.77
2022-10-17T03:18:34.455Z,16.08
2022-10-17T03:21:02.623Z,13.55
2022-10-17T03:23:32.098Z,16.55
2022-10-17T03:26:03.794Z,20.25
2022-10-17T03:28:31.984Z,18.02
2022-10-17T03:31:00.426Z,18.23
2022-10-17T03:33:28.991Z,28.85
2022-10-17T03:35:57.097Z,28.63
2022-10-17T03:38:25.292Z,23.40
2022-10-17T03:40:58.056Z,22.90
2022-10-17T03:43:26.201Z,27.63
2022-10-17T03:45:54.296Z,19.58
2022-10-17T03:48:22.398Z,18.02
2022-10-17T03:50:50.875Z,21.27
2022-10-17T03:53:19.273Z,17.52
2022-10-17T03:55:47.566Z,22.05
2022-10-17T03:58:17.136Z,38.78
2022-10-17T04:00:45.192Z,17.08
2022-10-17T04:03:17.121Z,18.90
2022-10-17T04:05:45.602Z,17.63
2022-10-17T04:08:13.734Z,15.75
2022-10-17T04:10:41.946Z,17.45
2022-10-17T04:13:10.166Z,17.92
2022-10-17T04:15:39.673Z,16.92
2022-10-17T04:18:07.773Z,16.95
2022-10-17T04:20:36.538Z,15.02
2022-10-17T04:23:04.690Z,19.73
2022-10-17T04:25:34.737Z,18.95
2022-10-17T04:28:05.003Z,19.48
2022-10-17T04:30:33.204Z,17.30
2022-10-17T04:33:02.826Z,16.25
2022-10-17T04:35:30.935Z,20.25
2022-10-17T04:37:59.000Z,20.98
2022-10-17T04:40:27.123Z,22.67
2022-10-17T04:42:56.538Z,23.80
2022-10-17T04:45:24.606Z,22.38
2022-10-17T04:47:52.767Z,21.85
2022-10-17T04:50:22.287Z,20.02
2022-10-17T04:52:50.490Z,20.17
2022-10-17T04:55:18.743Z,23.45
2022-10-17T04:57:46.995Z,24.88
2022-10-17T05:00:15.994Z,22.75
2022-10-17T05:02:44.268Z,21.80
2022-10-17T05:05:12.454Z,26.27
2022-10-17T05:07:43.155Z,26.45
2022-10-17T05:10:11.468Z,24.75
2022-10-17T05:12:39.623Z,26.25
2022-10-17T05:15:09.726Z,24.70
2022-10-17T05:17:37.755Z,25.25
2022-10-17T05:20:07.437Z,23.10
2022-10-17T05:22:38.335Z,23.73
2022-10-17T05:25:11.689Z,22.55
2022-10-17T05:27:40.028Z,24.25
2022-10-17T05:30:10.008Z,22.55
2022-10-17T05:32:38.223Z,24.35
2022-10-17T05:35:07.983Z,22.88
2022-10-17T05:37:36.302Z,18.25
2022-10-17T05:40:05.411Z,22.75
2022-10-17T05:42:35.009Z,22.08
2022-10-17T05:45:03.244Z,19.60
2022-10-17T05:47:32.062Z,22.55
2022-10-17T05:50:00.493Z,28.23
2022-10-17T05:52:28.772Z,28.17
2022-10-17T05:54:59.646Z,29.45
2022-10-17T05:57:27.882Z,24.13
2022-10-17T05:59:57.452Z,25.38
2022-10-17T06:02:26.017Z,25.15
2022-10-17T06:04:54.786Z,23.90
2022-10-17T06:07:22.943Z,22.83
2022-10-17T06:09:51.040Z,24.38
2022-10-17T06:12:19.251Z,24.17
2022-10-17T06:14:47.521Z,23.38
2022-10-17T06:17:17.389Z,25.17
2022-10-17T06:19:45.621Z,28.13
2022-10-17T06:22:14.542Z,27.10
2022-10-17T06:24:43.508Z,26.83
2022-10-17T06:27:12.270Z,26.73
2022-10-17T06:29:40.537Z,24.80
2022-10-17T06:32:12.588Z,23.33
2022-10-17T06:34:44.888Z,25.75
2022-10-17T06:37:13.187Z,27.88
2022-10-17T06:39:41.442Z,25.30
2022-10-17T06:42:09.924Z,23.17
2022-10-17T06:44:38.133Z,28.83
2022-10-17T06:47:06.368Z,26.35
2022-10-17T06:49:34.659Z,26.15
2022-10-17T06:52:04.343Z,26.10
2022-10-17T06:54:33.124Z,29.25
2022-10-17T06:57:01.476Z,31.20
2022-10-17T06:59:30.296Z,30.23
2022-10-17T07:01:58.674Z,29.25
2022-10-17T07:04:27.399Z,26.60
2022-10-17T07:09:27.840Z,27.13
2022-10-17T07:12:02.356Z,27.45
2022-10-17T07:14:33.264Z,28.10
2022-10-17T07:17:03.316Z,29.73
2022-10-17T07:19:32.207Z,28.42
2022-10-17T07:22:00.858Z,29.77
2022-10-17T07:24:38.367Z,26.90
2022-10-17T07:29:53.328Z,24.08
2022-10-17T07:32:21.524Z,27.10
2022-10-17T07:34:49.999Z,23.75
2022-10-17T07:37:18.275Z,22.42
2022-10-17T07:39:47.918Z,20.67
2022-10-17T07:42:16.095Z,22.60
2022-10-17T07:44:47.499Z,21.23
2022-10-17T07:47:15.848Z,18.10
2022-10-17T07:49:45.322Z,16.52
2022-10-17T07:52:15.199Z,12.10
2022-10-17T07:54:43.616Z,9.23
2022-10-17T07:57:13.246Z,6.95
2022-10-17T07:59:42.022Z,4.97
2022-10-17T08:02:19.541Z,3.05
2022-10-17T08:04:47.620Z,3.53
2022-10-17T08:07:22.916Z,3.67
2022-10-17T08:12:22.064Z,2.47
2022-10-17T08:14:50.355Z,2.55
2022-10-17T08:17:18.628Z,2.95
2022-10-17T08:19:46.889Z,2.80
2022-10-17T08:22:15.234Z,2.30
2022-10-17T08:24:45.328Z,1.92
2022-10-17T08:27:14.396Z,2.22
2022-10-17T08:29:49.400Z,2.42
2022-10-17T08:32:18.232Z,2.60
2022-10-17T08:34:46.533Z,2.15
2022-10-17T08:37:15.115Z,2.78
2022-10-17T08:39:45.682Z,1.95
2022-10-17T08:42:45.559Z,2.65
2022-10-17T08:45:25.562Z,1.88
2022-10-17T08:48:00.079Z,2.20
2022-10-17T08:50:38.246Z,1.67
2022-10-17T08:53:16.683Z,1.60
2022-10-17T08:55:49.584Z,1.98
2022-10-17T08:58:22.641Z,1.23
2022-10-17T09:01:10.522Z,1.75
2022-10-17T09:04:07.729Z,1.70
2022-10-17T09:06:40.519Z,2.20
2022-10-17T09:09:31.660Z,2.08
2022-10-17T09:12:17.000Z,2.05
2022-10-17T09:15:11.740Z,1.70
2022-10-17T09:17:54.342Z,1.70
2022-10-17T09:20:27.521Z,1.70
2022-10-17T09:23:01.414Z,2.00
2022-10-17T09:25:33.455Z,1.80
2022-10-17T09:28:15.843Z,1.60
2022-10-17T09:30:47.885Z,1.67
2022-10-17T09:33:34.655Z,1.45
2022-10-17T09:36:17.071Z,1.33
2022-10-17T09:38:50.463Z,1.60
2022-10-17T09:44:19.294Z,1.38
2022-10-17T09:47:06.771Z,2.05
2022-10-17T09:49:39.590Z,1.75
2022-10-17T09:52:17.490Z,1.85
2022-10-17T09:54:48.838Z,1.85
2022-10-17T09:57:19.763Z,2.15
2022-10-17T09:59:57.186Z,1.38
2022-10-17T10:02:27.849Z,1.35
2022-10-17T10:05:06.029Z,1.88
2022-10-17T10:07:39.113Z,2.13
2022-10-17T10:10:27.621Z,1.40
2022-10-17T10:13:17.332Z,1.70
2022-10-17T10:15:47.704Z,1.75
2022-10-17T10:18:33.945Z,1.92
2022-10-17T10:21:21.870Z,2.20
2022-10-17T10:24:11.868Z,2.00
2022-10-17T10:26:44.981Z,1.48
2022-10-17T10:29:28.878Z,1.80
2022-10-17T10:32:00.233Z,2.03
2022-10-17T10:34:32.652Z,2.00
2022-10-17T10:37:06.103Z,1.45
2022-10-17T10:39:49.779Z,1.48
2022-10-17T10:42:28.850Z,1.73
2022-10-17T10:45:03.394Z,1.52
2022-10-17T10:47:33.384Z,1.42
2022-10-17T10:50:40.569Z,1.45
2022-10-17T10:53:34.755Z,1.83
2022-10-17T10:56:12.091Z,1.45
2022-10-17T10:58:54.035Z,1.88
2022-10-17T11:01:32.546Z,1.42
2022-10-17T11:04:31.264Z,1.30
2022-10-17T11:07:05.880Z,2.03
2022-10-17T11:09:50.578Z,1.77
2022-10-17T11:12:26.038Z,2.05
2022-10-17T11:15:04.846Z,2.15
2022-10-17T11:17:43.864Z,1.67
2022-10-17T11:20:22.654Z,1.52
2022-10-17T11:22:59.740Z,1.60
2022-10-17T11:25:37.808Z,2.40
2022-10-17T11:28:14.352Z,1.65
2022-10-17T11:30:52.941Z,2.35
2022-10-17T11:33:31.676Z,2.22
2022-10-17T11:36:07.796Z,2.65
2022-10-17T11:38:49.514Z,1.67
2022-10-17T11:41:25.735Z,1.65
2022-10-17T11:44:00.612Z,1.13
2022-10-17T11:46:32.943Z,1.88
2022-10-17T11:49:21.935Z,2.38
2022-10-17T11:52:03.081Z,1.40
2022-10-17T11:54:39.602Z,1.70
2022-10-17T11:57:50.529Z,1.60
2022-10-17T12:00:47.543Z,1.50
2022-10-17T12:03:45.621Z,1.13
2022-10-17T12:06:29.573Z,1.40
2022-10-17T12:09:11.160Z,1.60
2022-10-17T12:11:53.994Z,1.40
2022-10-17T12:14:46.440Z,1.30
2022-10-17T12:17:40.946Z,1.23
2022-10-17T12:20:36.721Z,1.52
2022-10-17T12:23:28.118Z,1.27
2022-10-17T12:26:03.417Z,1.63
2022-10-17T12:28:42.023Z,2.13
2022-10-17T12:31:33.352Z,1.60
2022-10-17T12:34:05.364Z,1.98
2022-10-17T12:36:42.711Z,2.05
2022-10-17T12:39:51.506Z,1.60
2022-10-17T12:42:55.433Z,1.70
2022-10-17T12:45:52.719Z,1.63
2022-10-17T12:49:02.280Z,1.80
2022-10-17T12:51:35.629Z,1.88
2022-10-17T12:54:13.685Z,1.95
2022-10-17T12:56:45.445Z,1.40
2022-10-17T12:59:19.361Z,1.30
2022-10-17T13:01:51.554Z,2.45
2022-10-17T13:04:22.214Z,2.22
2022-10-17T13:06:54.776Z,1.40
2022-10-17T13:09:30.125Z,2.53
2022-10-17T13:12:02.406Z,1.80
2022-10-17T13:14:34.330Z,2.63
2022-10-17T13:17:05.412Z,1.25
2022-10-17T13:19:44.609Z,1.98
2022-10-17T13:22:19.332Z,1.73
2022-10-17T13:24:48.755Z,2.95
2022-10-17T13:27:29.889Z,2.15
2022-10-17T13:30:00.290Z,1.50
2022-10-17T13:32:37.983Z,1.73
2022-10-17T13:35:11.132Z,1.85
2022-10-17T13:37:42.605Z,1.67
2022-10-17T13:40:40.901Z,2.03
2022-10-17T13:43:17.596Z,1.77
2022-10-17T13:45:50.875Z,2.40
2022-10-17T13:48:23.317Z,1.52
2022-10-17T13:51:00.397Z,2.05
2022-10-17T13:53:33.799Z,1.75
2022-10-17T13:58:57.557Z,2.25
2022-10-17T14:01:28.793Z,2.13
2022-10-17T14:04:08.337Z,2.20
2022-10-17T14:06:46.290Z,2.10
2022-10-17T14:09:23.433Z,1.83
2022-10-17T14:12:01.933Z,2.08
2022-10-17T14:14:46.220Z,2.15
2022-10-17T14:17:27.350Z,2.35
2022-10-17T14:20:34.051Z,2.22
2022-10-17T14:23:20.876Z,1.55
2022-10-17T14:25:42.632Z,2.08
2022-10-17T14:28:18.411Z,2.13
2022-10-17T14:30:56.903Z,1.37
2022-10-17T14:33:30.648Z,2.00
2022-10-17T14:36:02.499Z,2.53
2022-10-17T14:38:32.876Z,1.80
2022-10-17T14:41:30.536Z,1.98
2022-10-17T14:43:57.379Z,2.30
2022-10-17T14:46:26.574Z,2.15
2022-10-17T14:48:59.888Z,2.08
2022-10-17T14:51:32.503Z,2.15
2022-10-17T14:54:25.869Z,2.63
2022-10-17T14:56:56.016Z,2.28
2022-10-17T14:59:52.120Z,2.00
2022-10-17T15:02:15.333Z,2.17
2022-10-17T15:04:43.547Z,2.13
2022-10-17T15:07:16.936Z,2.53
2022-10-17T15:09:49.477Z,2.55
2022-10-17T15:12:20.240Z,2.58
2022-10-17T15:14:48.998Z,3.22
2022-10-17T15:17:20.795Z,3.38
2022-10-17T15:19:50.625Z,2.83
2022-10-17T15:22:19.247Z,2.63
2022-10-17T15:24:49.006Z,2.80
2022-10-17T15:27:20.439Z,2.72
2022-10-17T15:29:49.635Z,2.75
2022-10-17T15:32:18.398Z,2.60
2022-10-17T15:34:46.782Z,2.65
2022-10-17T15:37:21.147Z,2.85
2022-10-17T15:39:54.602Z,2.42
2022-10-17T15:42:27.472Z,3.10
2022-10-17T15:44:55.935Z,3.20
2022-10-17T15:47:28.426Z,3.97
2022-10-17T15:49:57.864Z,3.70
2022-10-17T15:52:26.249Z,2.90
2022-10-17T15:54:58.494Z,2.72
2022-10-17T15:57:32.682Z,2.33
2022-10-17T16:00:01.639Z,3.33
2022-10-17T16:02:30.015Z,2.72
2022-10-17T16:04:58.641Z,2.40
2022-10-17T16:07:27.091Z,2.85
2022-10-17T16:09:56.786Z,3.90
2022-10-17T16:12:31.232Z,3.15
2022-10-17T16:14:59.622Z,3.97
2022-10-17T16:17:28.045Z,3.63
2022-10-17T16:19:56.541Z,4.13
2022-10-17T16:22:32.362Z,4.65
2022-10-17T16:25:09.380Z,3.58
2022-10-17T16:27:38.428Z,3.20
2022-10-17T16:30:09.557Z,3.55
2022-10-17T16:32:40.648Z,3.17
2022-10-17T16:35:10.641Z,3.95
2022-10-17T16:37:38.716Z,3.03
2022-10-17T16:40:11.135Z,4.18
2022-10-17T16:42:39.209Z,4.13
2022-10-17T16:45:08.779Z,3.60
2022-10-17T16:47:36.997Z,3.70
2022-10-17T16:50:05.451Z,3.67
2022-10-17T16:52:33.555Z,3.78
2022-10-17T16:55:01.822Z,4.00
2022-10-17T16:57:31.340Z,3.97
2022-10-17T16:59:59.602Z,4.13
2022-10-17T17:02:28.184Z,3.45
2022-10-17T17:04:56.321Z,4.68
2022-10-17T17:07:25.109Z,4.50
2022-10-17T17:09:53.694Z,3.80
2022-10-17T17:12:21.801Z,3.50
2022-10-17T17:14:51.356Z,4.97
2022-10-17T17:17:30.661Z,4.32
2022-10-17T17:20:09.033Z,3.80
2022-10-17T17:22:37.168Z,3.10
2022-10-17T17:25:06.300Z,4.20
2022-10-17T17:27:34.347Z,3.22
2022-10-17T17:30:03.999Z,4.78
2022-10-17T17:32:33.986Z,4.45
2022-10-17T17:35:02.321Z,3.92
2022-10-17T17:37:31.033Z,5.80
2022-10-17T17:39:59.324Z,4.40
2022-10-17T17:42:28.358Z,4.65
2022-10-17T17:44:56.622Z,5.53
2022-10-17T17:47:29.720Z,5.38
2022-10-17T17:49:58.264Z,5.47
2022-10-17T17:52:26.451Z,6.53
2022-10-17T17:54:54.544Z,6.90
2022-10-17T17:57:22.827Z,5.97
2022-10-17T17:59:52.204Z,6.60
2022-10-17T18:02:20.372Z,6.55
2022-10-17T18:04:50.202Z,6.05
2022-10-17T18:07:18.301Z,5.93
2022-10-17T18:09:46.465Z,5.50
2022-10-17T18:12:14.966Z,5.40
2022-10-17T18:14:43.129Z,5.53
2022-10-17T18:17:11.238Z,6.15
2022-10-17T18:19:39.696Z,5.65
2022-10-17T18:22:09.466Z,5.90
2022-10-17T18:24:37.583Z,6.38
2022-10-17T18:27:05.898Z,6.85
2022-10-17T18:29:34.434Z,5.68
2022-10-17T18:32:02.702Z,7.07
2022-10-17T18:34:31.190Z,8.10
2022-10-17T18:37:00.047Z,7.63
2022-10-17T18:39:31.145Z,6.40
2022-10-17T18:41:59.742Z,6.93
2022-10-17T18:44:28.238Z,7.55
2022-10-17T18:46:58.639Z,7.35
2022-10-17T18:49:30.140Z,7.05
2022-10-17T18:51:59.531Z,6.88
2022-10-17T18:54:27.723Z,6.65
2022-10-17T18:56:57.597Z,7.80
2022-10-17T18:59:25.785Z,6.93
2022-10-17T19:01:53.978Z,5.80
2022-10-17T19:04:22.685Z,7.63
2022-10-17T19:06:51.079Z,9.10
2022-10-17T19:09:19.395Z,6.30
2022-10-17T19:11:47.626Z,6.85
2022-10-17T19:14:17.530Z,6.57
2022-10-17T19:16:49.355Z,6.85
2022-10-17T19:19:23.489Z,6.97
2022-10-17T19:21:52.487Z,7.75
2022-10-17T19:24:23.510Z,8.98
2022-10-17T19:26:54.443Z,7.55
2022-10-17T19:29:27.841Z,8.65
2022-10-17T19:34:24.252Z,7.78
2022-10-17T19:36:52.959Z,9.48
2022-10-17T19:39:24.978Z,8.45
2022-10-17T19:41:53.545Z,9.57
2022-10-17T19:44:23.296Z,9.18
2022-10-17T19:46:51.427Z,8.02
2022-10-17T19:49:19.544Z,7.35
2022-10-17T19:51:47.998Z,6.95
2022-10-17T19:54:18.285Z,8.88
2022-10-17T19:56:46.437Z,8.57
2022-10-17T19:59:16.960Z,10.30
2022-10-17T20:01:47.003Z,8.57
2022-10-17T20:04:15.557Z,8.63
2022-10-17T20:06:43.866Z,9.90
2022-10-17T20:09:16.688Z,11.82
2022-10-17T20:11:46.396Z,9.85
2022-10-17T20:14:14.707Z,10.13
2022-10-17T20:16:44.750Z,10.05
2022-10-17T20:19:14.933Z,9.90
2022-10-17T20:21:44.592Z,10.25
2022-10-17T20:24:15.719Z,10.52
2022-10-17T20:26:45.251Z,10.43
2022-10-17T20:29:17.701Z,8.90
2022-10-17T20:31:48.032Z,9.63
2022-10-17T20:34:20.064Z,8.30
2022-10-17T20:36:49.439Z,9.27
2022-10-17T20:39:20.945Z,9.63
2022-10-17T20:41:49.405Z,8.55
2022-10-17T20:44:17.747Z,10.57
2022-10-17T20:47:00.564Z,9.15
2022-10-17T20:49:32.190Z,9.13
2022-10-17T20:52:01.293Z,9.10
2022-10-17T20:54:29.937Z,10.20
2022-10-17T20:57:01.077Z,10.25
2022-10-17T20:59:34.449Z,12.00
2022-10-17T21:02:02.903Z,10.93
2022-10-17T21:04:45.858Z,10.43
2022-10-17T21:07:14.844Z,11.27
2022-10-17T21:09:42.877Z,11.00
2022-10-17T21:12:10.911Z,13.98
2022-10-17T21:14:39.045Z,12.55
2022-10-17T21:17:07.783Z,12.70
2022-10-17T21:19:37.262Z,11.75
2022-10-17T21:22:05.293Z,9.95
2022-10-17T21:24:33.774Z,9.23
2022-10-17T21:27:01.854Z,9.25
2022-10-17T21:29:29.915Z,9.07
2022-10-17T21:31:57.955Z,9.75
2022-10-17T21:34:26.270Z,12.32
2022-10-17T21:36:55.910Z,11.35
2022-10-17T21:39:24.804Z,9.68
2022-10-17T21:41:54.030Z,11.70
2022-10-17T21:44:24.213Z,11.43
2022-10-17T21:46:53.167Z,9.88
2022-10-17T21:49:24.793Z,10.93
2022-10-17T21:51:55.074Z,11.52
2022-10-17T21:54:24.601Z,11.70
2022-10-17T21:56:53.162Z,10.95
2022-10-17T21:59:21.190Z,10.77
2022-10-17T22:01:49.365Z,9.85
2022-10-17T22:04:20.712Z,12.77
2022-10-17T22:06:52.322Z,10.65
2022-10-17T22:09:25.961Z,11.73
2022-10-17T22:11:57.326Z,11.63
2022-10-17T22:14:28.403Z,12.40
2022-10-17T22:16:56.972Z,12.25
2022-10-17T22:19:27.570Z,12.13
2022-10-17T22:21:56.391Z,12.20
2022-10-17T22:24:25.775Z,12.15
2022-10-17T22:26:53.799Z,11.57
2022-10-17T22:29:22.213Z,11.38
2022-10-17T22:31:50.262Z,11.32
2022-10-17T22:34:19.424Z,11.55
2022-10-17T22:36:48.856Z,11.82
2022-10-17T22:39:17.374Z,12.65
2022-10-17T22:41:46.745Z,10.48
2022-10-17T22:44:14.953Z,11.98
2022-10-17T22:46:43.119Z,12.07
2022-10-17T22:49:11.235Z,12.60
2022-10-17T22:51:39.363Z,13.40
2022-10-17T22:54:07.799Z,12.25
2022-10-17T22:56:35.930Z,12.48
2022-10-17T22:59:05.423Z,12.43
2022-10-17T23:01:33.589Z,11.70
2022-10-17T23:04:01.678Z,13.13
2022-10-17T23:06:29.838Z,12.23
2022-10-17T23:08:58.071Z,12.57
2022-10-17T23:11:26.218Z,14.15
2022-10-17T23:13:54.311Z,14.00
2022-10-17T23:16:23.696Z,13.40
2022-10-17T23:18:51.807Z,13.70
2022-10-17T23:21:19.968Z,15.02
2022-10-17T23:23:48.045Z,15.35
2022-10-17T23:26:16.407Z,18.52
2022-10-17T23:28:44.734Z,16.83
2022-10-17T23:31:16.563Z,17.70
2022-10-17T23:33:48.240Z,18.35
2022-10-17T23:36:20.461Z,22.85
2022-10-17T23:38:52.599Z,18.90
2022-10-17T23:41:23.104Z,17.00
2022-10-17T23:43:51.472Z,3.08
2022-10-17T23:46:19.928Z,0.75
2022-10-17T23:48:49.396Z,0.52
2022-10-17T23:51:17.714Z,0.10
2022-10-17T23:53:45.794Z,0.22
2022-10-17T23:56:14.018Z,0.38
2022-10-17T23:58:42.368Z,0.73
